createdAt,value
2023-04-07T00:00:56.752Z,91.17
2023-04-07T00:03:34.585Z,91.21
2023-04-07T00:06:04.321Z,91.53
2023-04-07T00:08:34.181Z,91.32
2023-04-07T00:11:04.851Z,90.46
2023-04-07T00:13:35.323Z,91.05
2023-04-07T00:16:04.255Z,90.44
2023-04-07T00:18:34.132Z,90.59
2023-04-07T00:21:02.852Z,91.14
2023-04-07T00:23:33.045Z,90.33
2023-04-07T00:26:01.409Z,89.94
2023-04-07T00:28:30.893Z,89.31
2023-04-07T00:31:00.334Z,90.11
2023-04-07T00:33:28.499Z,89.89
2023-04-07T00:36:02.005Z,90.00
2023-04-07T00:38:32.078Z,90.18
2023-04-07T00:41:02.964Z,89.68
2023-04-07T00:43:31.285Z,88.90
2023-04-07T00:46:00.140Z,90.61
2023-04-07T00:48:32.822Z,89.61
2023-04-07T00:51:02.181Z,90.26
2023-04-07T00:53:30.493Z,90.61
2023-04-07T00:55:58.838Z,90.16
2023-04-07T00:58:29.492Z,90.57
2023-04-07T01:01:06.710Z,90.11
2023-04-07T01:03:43.729Z,91.16
2023-04-07T01:06:19.787Z,90.29
2023-04-07T01:08:59.963Z,90.16
2023-04-07T01:11:34.038Z,89.97
2023-04-07T01:14:03.219Z,90.73
2023-04-07T01:16:33.711Z,90.69
2023-04-07T01:19:13.364Z,90.53
2023-04-07T01:21:46.949Z,90.92
2023-04-07T01:24:47.285Z,91.52
2023-04-07T01:27:26.798Z,90.93
2023-04-07T01:30:03.348Z,91.16
2023-04-07T01:32:37.356Z,91.00
2023-04-07T01:35:10.181Z,90.99
2023-04-07T01:37:39.825Z,90.58
2023-04-07T01:40:14.460Z,90.73
2023-04-07T01:42:45.947Z,91.13
2023-04-07T01:45:17.470Z,90.75
2023-04-07T01:47:47.292Z,90.66
2023-04-07T01:50:17.514Z,90.94
2023-04-07T01:52:47.218Z,90.20
2023-04-07T01:55:15.718Z,90.55
2023-04-07T01:57:44.775Z,90.91
2023-04-07T02:00:13.857Z,91.21
2023-04-07T02:02:48.060Z,91.07
2023-04-07T02:05:21.978Z,91.01
2023-04-07T02:07:55.068Z,91.19
2023-04-07T02:10:29.161Z,91.25
2023-04-07T02:13:00.242Z,91.51
2023-04-07T02:15:30.469Z,91.38
2023-04-07T02:18:08.188Z,91.22
2023-04-07T02:20:38.202Z,91.80
2023-04-07T02:23:08.970Z,91.81
2023-04-07T02:25:38.562Z,91.36
2023-04-07T02:28:07.353Z,92.07
2023-04-07T02:30:36.538Z,91.41
2023-04-07T02:33:07.247Z,91.86
2023-04-07T02:35:36.069Z,92.09
2023-04-07T02:38:06.875Z,92.03
2023-04-07T02:40:36.857Z,92.23
2023-04-07T02:43:08.188Z,91.87
2023-04-07T02:45:36.507Z,91.70
2023-04-07T02:48:08.865Z,92.44
2023-04-07T02:50:37.074Z,92.73
2023-04-07T02:53:07.326Z,92.13
2023-04-07T02:55:35.429Z,92.12
2023-04-07T02:58:04.095Z,91.92
2023-04-07T03:00:33.155Z,92.42
2023-04-07T03:03:05.008Z,92.48
2023-04-07T03:05:35.418Z,92.42
2023-04-07T03:08:04.461Z,92.18
2023-04-07T03:10:34.985Z,92.17
2023-04-07T03:13:06.186Z,92.12
2023-04-07T03:15:34.971Z,92.37
2023-04-07T03:18:03.145Z,92.62
2023-04-07T03:20:33.818Z,92.39
2023-04-07T03:23:06.100Z,92.04
2023-04-07T03:25:34.193Z,92.12
2023-04-07T03:28:04.174Z,91.79
2023-04-07T03:30:33.522Z,92.31
2023-04-07T03:33:02.504Z,92.25
2023-04-07T03:35:33.785Z,92.08
2023-04-07T03:38:05.636Z,92.12
2023-04-07T03:40:37.812Z,92.17
2023-04-07T03:43:06.796Z,91.97
2023-04-07T03:45:36.878Z,92.42
2023-04-07T03:48:10.885Z,93.24
2023-04-07T03:50:42.460Z,93.28
2023-04-07T03:53:14.899Z,93.37
2023-04-07T03:55:44.686Z,93.72
2023-04-07T03:58:13.004Z,92.94
2023-04-07T04:00:42.309Z,93.32
2023-04-07T04:03:16.185Z,93.53
2023-04-07T04:05:46.984Z,92.98
2023-04-07T04:08:20.502Z,93.16
2023-04-07T04:10:52.151Z,92.81
2023-04-07T04:13:21.002Z,93.28
2023-04-07T04:15:49.163Z,93.21
2023-04-07T04:18:18.133Z,92.74
2023-04-07T04:20:48.066Z,92.64
2023-04-07T04:23:19.308Z,92.19
2023-04-07T04:25:47.500Z,92.62
2023-04-07T04:28:15.491Z,91.98
2023-04-07T04:30:48.206Z,92.17
2023-04-07T04:33:16.546Z,92.12
2023-04-07T04:35:46.962Z,92.53
2023-04-07T04:38:14.933Z,91.73
2023-04-07T04:40:44.795Z,92.51
2023-04-07T04:43:13.335Z,92.60
2023-04-07T04:45:45.430Z,92.50
2023-04-07T04:48:16.219Z,92.69
2023-04-07T04:50:44.355Z,92.41
2023-04-07T04:53:14.436Z,92.64
2023-04-07T04:55:52.849Z,92.84
2023-04-07T04:58:21.867Z,92.65
2023-04-07T05:00:58.154Z,92.36
2023-04-07T05:03:27.389Z,92.60
2023-04-07T05:05:56.318Z,92.28
2023-04-07T05:08:26.617Z,92.41
2023-04-07T05:10:57.293Z,92.66
2023-04-07T05:13:31.082Z,92.42
2023-04-07T05:16:00.995Z,92.42
2023-04-07T05:18:29.255Z,92.81
2023-04-07T05:20:58.159Z,92.62
2023-04-07T05:23:26.622Z,92.78
2023-04-07T05:25:56.564Z,92.79
2023-04-07T05:28:24.987Z,92.07
2023-04-07T05:30:53.535Z,92.86
2023-04-07T05:33:23.897Z,92.72
2023-04-07T05:35:54.456Z,91.85
2023-04-07T05:38:23.189Z,91.84
2023-04-07T05:40:53.193Z,92.18
2023-04-07T05:43:24.016Z,92.45
2023-04-07T05:45:52.145Z,92.64
2023-04-07T05:48:21.189Z,92.55
2023-04-07T05:50:50.721Z,92.92
2023-04-07T05:53:21.487Z,92.95
2023-04-07T05:55:51.515Z,92.64
2023-04-07T05:58:20.496Z,92.43
2023-04-07T06:00:53.138Z,92.15
2023-04-07T06:03:22.747Z,91.85
2023-04-07T06:05:51.842Z,92.17
2023-04-07T06:08:20.668Z,92.28
2023-04-07T06:10:53.184Z,92.29
2023-04-07T06:13:22.068Z,92.53
2023-04-07T06:15:52.852Z,91.88
2023-04-07T06:18:22.689Z,92.23
2023-04-07T06:20:50.790Z,91.96
2023-04-07T06:23:23.162Z,91.86
2023-04-07T06:25:53.262Z,92.31
2023-04-07T06:28:22.954Z,92.30
2023-04-07T06:30:53.623Z,92.10
2023-04-07T06:33:25.821Z,92.35
2023-04-07T06:35:54.339Z,92.05
2023-04-07T06:38:22.961Z,91.87
2023-04-07T06:40:51.103Z,91.93
2023-04-07T06:43:19.183Z,92.02
2023-04-07T06:45:47.371Z,91.81
2023-04-07T06:48:17.632Z,91.81
2023-04-07T06:50:49.107Z,91.89
2023-04-07T06:53:20.362Z,92.49
2023-04-07T06:55:49.718Z,92.13
2023-04-07T06:58:19.876Z,91.99
2023-04-07T07:00:51.210Z,92.24
2023-04-07T07:03:22.361Z,91.91
2023-04-07T07:05:50.786Z,92.17
2023-04-07T07:08:23.341Z,92.53
2023-04-07T07:10:54.680Z,91.66
2023-04-07T07:13:25.331Z,92.48
2023-04-07T07:15:54.541Z,92.23
2023-04-07T07:18:24.548Z,92.06
2023-04-07T07:20:53.474Z,91.99
2023-04-07T07:23:21.837Z,91.72
2023-04-07T07:25:50.687Z,91.77
2023-04-07T07:28:21.786Z,91.84
2023-04-07T07:30:51.583Z,92.02
2023-04-07T07:33:22.705Z,91.46
2023-04-07T07:35:53.019Z,91.87
2023-04-07T07:38:21.393Z,92.05
2023-04-07T07:40:52.693Z,91.22
2023-04-07T07:43:23.120Z,90.93
2023-04-07T07:45:52.622Z,91.04
2023-04-07T07:48:23.470Z,91.50
2023-04-07T07:50:57.052Z,91.25
2023-04-07T07:53:25.316Z,91.56
2023-04-07T07:55:53.298Z,93.43
2023-04-07T07:58:21.574Z,90.95
2023-04-07T08:00:50.539Z,90.90
2023-04-07T08:03:22.700Z,90.92
2023-04-07T08:05:52.558Z,89.89
2023-04-07T08:08:21.645Z,90.12
2023-04-07T08:10:49.981Z,90.75
2023-04-07T08:13:19.551Z,90.97
2023-04-07T08:15:47.837Z,89.75
2023-04-07T08:18:17.947Z,89.79
2023-04-07T08:20:50.164Z,89.66
2023-04-07T08:23:34.310Z,89.49
2023-04-07T08:26:03.247Z,89.72
2023-04-07T08:28:31.463Z,89.44
2023-04-07T08:30:59.606Z,89.49
2023-04-07T08:33:28.672Z,89.38
2023-04-07T08:35:57.784Z,89.75
2023-04-07T08:38:28.181Z,89.45
2023-04-07T08:41:05.796Z,89.92
2023-04-07T08:43:36.938Z,89.61
2023-04-07T08:46:06.877Z,89.35
2023-04-07T08:48:39.702Z,89.73
2023-04-07T08:51:10.885Z,89.34
2023-04-07T08:53:51.286Z,90.00
2023-04-07T08:56:21.561Z,89.72
2023-04-07T08:58:50.032Z,89.09
2023-04-07T09:01:19.359Z,88.65
2023-04-07T09:03:50.516Z,88.83
2023-04-07T09:06:22.714Z,88.72
2023-04-07T09:08:53.569Z,88.02
2023-04-07T09:11:23.646Z,87.68
2023-04-07T09:13:53.160Z,87.10
2023-04-07T09:16:24.373Z,87.16
2023-04-07T09:18:56.679Z,87.13
2023-04-07T09:21:25.140Z,86.72
2023-04-07T09:23:55.701Z,87.07
2023-04-07T09:26:28.411Z,86.33
2023-04-07T09:29:00.941Z,86.26
2023-04-07T09:31:47.579Z,87.17
2023-04-07T09:34:30.005Z,86.48
2023-04-07T09:37:06.364Z,85.95
2023-04-07T09:39:50.986Z,86.56
2023-04-07T09:42:20.428Z,86.07
2023-04-07T09:44:50.638Z,85.16
2023-04-07T09:47:18.951Z,85.59
2023-04-07T09:49:54.502Z,86.09
2023-04-07T09:52:28.454Z,86.23
2023-04-07T09:54:58.722Z,85.73
2023-04-07T09:57:28.343Z,85.50
2023-04-07T09:59:57.811Z,86.51
2023-04-07T10:02:29.012Z,87.57
2023-04-07T10:04:59.909Z,86.69
2023-04-07T10:07:29.056Z,87.70
2023-04-07T10:09:58.914Z,88.32
2023-04-07T10:12:29.350Z,88.67
2023-04-07T10:14:58.545Z,88.44
2023-04-07T10:17:29.238Z,88.22
2023-04-07T10:20:11.646Z,88.62
2023-04-07T10:22:46.738Z,88.66
2023-04-07T10:25:26.316Z,88.75
2023-04-07T10:27:58.519Z,89.47
2023-04-07T10:30:41.324Z,88.64
2023-04-07T10:33:11.355Z,88.75
2023-04-07T10:36:06.437Z,90.27
2023-04-07T10:38:37.078Z,90.56
2023-04-07T10:41:39.831Z,90.17
2023-04-07T10:44:32.668Z,91.04
2023-04-07T10:47:08.501Z,90.54
2023-04-07T10:49:42.236Z,90.17
2023-04-07T10:52:26.229Z,90.67
2023-04-07T10:55:33.243Z,91.17
2023-04-07T10:58:30.215Z,90.87
2023-04-07T11:01:25.398Z,91.06
2023-04-07T11:04:02.317Z,91.41
2023-04-07T11:06:31.657Z,90.83
2023-04-07T11:09:00.699Z,91.07
2023-04-07T11:11:39.013Z,91.72
2023-04-07T11:14:19.575Z,91.84
2023-04-07T11:16:48.400Z,91.84
2023-04-07T11:19:17.216Z,91.61
2023-04-07T11:21:47.388Z,91.56
2023-04-07T11:24:45.317Z,91.45
2023-04-07T11:27:17.271Z,91.50
2023-04-07T11:29:50.926Z,90.12
2023-04-07T11:32:29.846Z,89.57
2023-04-07T11:34:59.795Z,89.51
2023-04-07T11:37:29.811Z,89.75
2023-04-07T11:40:00.336Z,89.81
2023-04-07T11:42:36.211Z,89.42
2023-04-07T11:45:08.358Z,89.09
2023-04-07T11:47:38.995Z,88.78
2023-04-07T11:50:10.180Z,87.97
2023-04-07T11:52:46.906Z,88.74
2023-04-07T11:55:22.059Z,89.68
2023-04-07T11:57:53.841Z,89.55
2023-04-07T12:00:24.332Z,90.30
2023-04-07T12:02:53.938Z,90.46
2023-04-07T12:05:22.125Z,90.90
2023-04-07T12:07:58.077Z,91.49
2023-04-07T12:10:27.200Z,90.44
2023-04-07T12:12:58.868Z,89.76
2023-04-07T12:15:32.151Z,89.63
2023-04-07T12:18:00.513Z,90.03
2023-04-07T12:20:30.826Z,89.58
2023-04-07T12:23:04.268Z,88.90
2023-04-07T12:25:35.805Z,87.76
2023-04-07T12:28:06.153Z,87.92
2023-04-07T12:30:37.512Z,87.24
2023-04-07T12:33:05.910Z,86.56
2023-04-07T12:35:35.517Z,85.89
2023-04-07T12:38:13.814Z,86.34
2023-04-07T12:40:45.046Z,85.05
2023-04-07T12:43:14.177Z,83.96
2023-04-07T12:45:45.649Z,83.09
2023-04-07T12:48:17.263Z,83.40
2023-04-07T12:50:47.265Z,82.93
2023-04-07T12:53:16.768Z,83.62
2023-04-07T12:55:49.991Z,83.46
2023-04-07T12:58:19.924Z,83.35
2023-04-07T13:00:52.720Z,83.98
2023-04-07T13:03:21.567Z,82.64
2023-04-07T13:05:51.810Z,83.41
2023-04-07T13:08:20.165Z,82.33
2023-04-07T13:10:52.286Z,81.31
2023-04-07T13:13:20.633Z,79.46
2023-04-07T13:15:53.423Z,79.47
2023-04-07T13:18:23.304Z,78.95
2023-04-07T13:21:10.752Z,78.00
2023-04-07T13:23:49.525Z,79.67
2023-04-07T13:26:35.889Z,79.25
2023-04-07T13:29:05.211Z,79.10
2023-04-07T13:31:36.290Z,77.50
2023-04-07T13:34:05.388Z,76.50
2023-04-07T13:36:34.868Z,75.69
2023-04-07T13:39:03.289Z,73.11
2023-04-07T13:41:33.707Z,72.01
2023-04-07T13:44:05.221Z,72.14
2023-04-07T13:46:37.252Z,72.53
2023-04-07T13:49:07.926Z,74.11
2023-04-07T13:51:38.142Z,71.50
2023-04-07T13:54:07.965Z,69.61
2023-04-07T13:56:38.539Z,70.22
2023-04-07T13:59:09.427Z,70.28
2023-04-07T14:01:40.981Z,70.63
2023-04-07T14:04:15.394Z,69.98
2023-04-07T14:06:47.194Z,68.82
2023-04-07T14:09:20.826Z,69.54
2023-04-07T14:12:01.698Z,72.32
2023-04-07T14:14:31.385Z,72.50
2023-04-07T14:17:07.342Z,75.22
2023-04-07T14:19:39.972Z,73.31
2023-04-07T14:22:20.373Z,77.76
2023-04-07T14:24:51.602Z,75.54
2023-04-07T14:27:23.940Z,78.11
2023-04-07T14:29:56.706Z,78.56
2023-04-07T14:32:30.025Z,75.05
2023-04-07T14:35:05.056Z,69.73
2023-04-07T14:37:33.978Z,62.09
2023-04-07T14:40:05.370Z,65.08
2023-04-07T14:42:37.847Z,61.96
2023-04-07T14:45:09.379Z,59.72
2023-04-07T14:47:42.733Z,55.96
2023-04-07T14:50:14.375Z,54.59
2023-04-07T14:52:44.536Z,54.54
2023-04-07T14:55:13.307Z,55.92
2023-04-07T14:57:43.133Z,56.30
2023-04-07T15:00:17.827Z,51.83
2023-04-07T15:03:04.634Z,46.97
2023-04-07T15:05:35.785Z,45.19
2023-04-07T15:08:14.877Z,46.73
2023-04-07T15:10:44.542Z,52.29
2023-04-07T15:13:14.729Z,55.10
2023-04-07T15:16:02.968Z,56.22
2023-04-07T15:18:37.251Z,53.87
2023-04-07T15:21:06.380Z,48.30
2023-04-07T15:23:39.178Z,46.83
2023-04-07T15:26:07.569Z,46.31
2023-04-07T15:28:37.537Z,47.96
2023-04-07T15:31:12.613Z,47.64
2023-04-07T15:33:44.574Z,50.15
2023-04-07T15:36:14.232Z,47.11
2023-04-07T15:41:28.609Z,56.32
2023-04-07T15:43:56.942Z,57.67
2023-04-07T15:46:25.907Z,60.40
2023-04-07T15:48:56.102Z,60.70
2023-04-07T15:51:27.160Z,62.52
2023-04-07T15:53:56.062Z,64.25
2023-04-07T15:56:26.470Z,65.35
2023-04-07T15:58:57.740Z,66.42
2023-04-07T16:04:19.755Z,69.77
2023-04-07T16:06:48.660Z,70.21
2023-04-07T16:09:18.150Z,68.97
2023-04-07T16:11:47.460Z,69.89
2023-04-07T16:14:19.358Z,70.40
2023-04-07T16:16:49.748Z,71.05
2023-04-07T16:19:23.637Z,72.55
2023-04-07T16:21:54.928Z,72.98
2023-04-07T16:24:23.569Z,70.64
2023-04-07T16:26:53.707Z,69.72
2023-04-07T16:29:24.776Z,70.42
2023-04-07T16:31:55.230Z,70.81
2023-04-07T16:34:24.769Z,70.89
2023-04-07T16:36:53.184Z,71.62
2023-04-07T16:39:25.385Z,71.22
2023-04-07T16:41:55.152Z,71.91
2023-04-07T16:44:27.602Z,73.16
2023-04-07T16:46:55.920Z,72.47
2023-04-07T16:49:25.872Z,72.11
2023-04-07T16:51:54.719Z,71.88
2023-04-07T16:54:27.322Z,72.27
2023-04-07T16:56:58.840Z,72.06
2023-04-07T16:59:27.830Z,71.86
2023-04-07T17:01:56.126Z,71.47
2023-04-07T17:04:29.575Z,71.29
2023-04-07T17:06:59.906Z,70.96
2023-04-07T17:09:28.797Z,70.46
2023-04-07T17:11:57.188Z,69.51
2023-04-07T17:14:25.930Z,70.25
2023-04-07T17:17:04.795Z,71.70
2023-04-07T17:19:36.063Z,72.95
2023-04-07T17:22:04.942Z,72.54
2023-04-07T17:24:34.623Z,73.63
2023-04-07T17:27:03.120Z,73.53
2023-04-07T17:29:35.587Z,74.45
2023-04-07T17:32:08.153Z,75.62
2023-04-07T17:34:59.577Z,74.56
2023-04-07T17:37:30.977Z,74.38
2023-04-07T17:40:02.504Z,75.67
2023-04-07T17:42:36.729Z,76.30
2023-04-07T17:45:10.973Z,76.66
2023-04-07T17:47:55.390Z,77.74
2023-04-07T17:50:25.879Z,77.66
2023-04-07T17:52:55.735Z,78.52
2023-04-07T17:55:24.277Z,79.34
2023-04-07T17:57:52.768Z,78.45
2023-04-07T18:00:22.594Z,79.21
2023-04-07T18:02:55.164Z,79.32
2023-04-07T18:05:26.322Z,79.79
2023-04-07T18:07:57.283Z,78.41
2023-04-07T18:10:26.557Z,78.19
2023-04-07T18:12:57.160Z,78.54
2023-04-07T18:15:27.021Z,77.54
2023-04-07T18:17:57.413Z,76.66
2023-04-07T18:20:27.602Z,78.30
2023-04-07T18:22:59.162Z,77.62
2023-04-07T18:25:29.363Z,78.49
2023-04-07T18:27:58.832Z,78.68
2023-04-07T18:30:27.265Z,79.51
2023-04-07T18:32:57.512Z,79.44
2023-04-07T18:35:27.432Z,80.89
2023-04-07T18:37:57.399Z,80.83
2023-04-07T18:40:27.143Z,79.84
2023-04-07T18:42:57.122Z,80.82
2023-04-07T18:45:26.502Z,81.12
2023-04-07T18:48:03.122Z,81.90
2023-04-07T18:50:33.698Z,81.93
2023-04-07T18:53:03.114Z,82.14
2023-04-07T18:55:33.168Z,81.87
2023-04-07T18:58:03.843Z,81.15
2023-04-07T19:00:36.204Z,81.29
2023-04-07T19:03:07.401Z,82.35
2023-04-07T19:05:42.592Z,81.21
2023-04-07T19:08:11.600Z,80.98
2023-04-07T19:10:41.642Z,81.24
2023-04-07T19:13:12.368Z,80.57
2023-04-07T19:15:48.642Z,81.30
2023-04-07T19:18:16.775Z,80.69
2023-04-07T19:20:48.710Z,79.86
2023-04-07T19:23:17.277Z,80.24
2023-04-07T19:25:46.137Z,79.73
2023-04-07T19:28:14.471Z,79.15
2023-04-07T19:30:45.384Z,78.83
2023-04-07T19:33:16.837Z,78.78
2023-04-07T19:35:46.495Z,77.85
2023-04-07T19:38:17.430Z,77.93
2023-04-07T19:40:47.914Z,77.73
2023-04-07T19:43:18.801Z,76.62
2023-04-07T19:45:49.427Z,77.82
2023-04-07T19:48:20.761Z,77.42
2023-04-07T19:50:59.327Z,78.30
2023-04-07T19:53:29.031Z,77.07
2023-04-07T19:55:57.869Z,77.46
2023-04-07T19:58:28.621Z,76.95
2023-04-07T20:00:56.839Z,77.68
2023-04-07T20:03:33.703Z,77.10
2023-04-07T20:06:04.237Z,76.91
2023-04-07T20:08:34.631Z,76.60
2023-04-07T20:11:04.365Z,78.69
2023-04-07T20:13:34.998Z,79.50
2023-04-07T20:16:06.490Z,80.08
2023-04-07T20:18:40.575Z,80.77
2023-04-07T20:21:12.760Z,80.71
2023-04-07T20:23:51.621Z,80.96
2023-04-07T20:26:23.107Z,81.03
2023-04-07T20:28:54.309Z,80.81
2023-04-07T20:31:23.366Z,80.86
2023-04-07T20:33:52.321Z,81.24
2023-04-07T20:36:23.635Z,81.28
2023-04-07T20:38:56.169Z,80.29
2023-04-07T20:41:31.208Z,79.45
2023-04-07T20:44:06.500Z,79.59
2023-04-07T20:46:35.232Z,77.18
2023-04-07T20:49:11.717Z,77.90
2023-04-07T20:51:44.960Z,77.46
2023-04-07T20:54:15.310Z,78.52
2023-04-07T20:56:51.909Z,78.19
2023-04-07T21:02:08.842Z,78.70
2023-04-07T21:04:38.418Z,79.28
2023-04-07T21:07:10.614Z,78.70
2023-04-07T21:09:47.378Z,80.63
2023-04-07T21:12:19.539Z,79.62
2023-04-07T21:14:49.905Z,79.42
2023-04-07T21:17:22.840Z,79.41
2023-04-07T21:19:56.950Z,79.20
2023-04-07T21:22:28.105Z,80.04
2023-04-07T21:24:57.460Z,79.85
2023-04-07T21:27:27.138Z,80.93
2023-04-07T21:29:55.694Z,80.89
2023-04-07T21:32:33.472Z,81.01
2023-04-07T21:35:02.094Z,81.97
2023-04-07T21:37:39.058Z,81.82
2023-04-07T21:40:07.878Z,81.66
2023-04-07T21:42:36.377Z,81.74
2023-04-07T21:45:07.502Z,82.34
2023-04-07T21:47:38.203Z,83.06
2023-04-07T21:50:08.757Z,82.50
2023-04-07T21:52:40.218Z,82.25
2023-04-07T21:55:12.319Z,82.39
2023-04-07T21:57:42.219Z,82.40
2023-04-07T22:00:13.388Z,81.85
2023-04-07T22:02:42.228Z,81.21
2023-04-07T22:05:13.788Z,80.76
2023-04-07T22:07:49.041Z,81.51
2023-04-07T22:10:25.801Z,82.24
2023-04-07T22:12:54.228Z,80.90
2023-04-07T22:15:23.363Z,81.15
2023-04-07T22:17:53.206Z,81.53
2023-04-07T22:20:22.287Z,81.83
2023-04-07T22:22:52.094Z,82.60
2023-04-07T22:25:20.723Z,83.45
2023-04-07T22:27:52.343Z,81.71
2023-04-07T22:30:21.420Z,80.32
2023-04-07T22:32:51.228Z,79.86
2023-04-07T22:35:20.938Z,80.40
2023-04-07T22:37:51.491Z,81.25
2023-04-07T22:40:22.696Z,79.91
2023-04-07T22:42:51.172Z,79.39
2023-04-07T22:45:29.276Z,80.28
2023-04-07T22:48:05.900Z,79.80
2023-04-07T22:50:34.774Z,80.90
2023-04-07T22:53:03.092Z,80.75
2023-04-07T22:55:33.419Z,81.11
2023-04-07T22:58:01.748Z,80.13
2023-04-07T23:00:31.065Z,80.60
2023-04-07T23:03:02.867Z,81.24
2023-04-07T23:05:31.301Z,81.02
2023-04-07T23:08:01.198Z,81.43
2023-04-07T23:10:29.610Z,81.27
2023-04-07T23:13:00.665Z,79.72
2023-04-07T23:15:33.014Z,80.90
2023-04-07T23:45:19.365Z,80.07
2023-04-07T23:47:50.138Z,80.20
2023-04-07T23:50:20.215Z,80.24
2023-04-07T23:52:48.619Z,80.53
2023-04-07T23:55:17.253Z,80.31
2023-04-07T23:57:47.600Z,81.38
